Time;durP1;ratioP1;P1;durP2;ratioP2;P2;SDS_P1;SDS_P2;PMS_P1;PMS_P2;Temp;Humidity;BMP_temperature;BMP_pressure;BME280_temperature;BME280_humidity;BME280_pressure;Samples;Min_cycle;Max_cycle;Signal;HPM_P1;HPM_P2
2020/12/02 00:00:00;;;;;;;;;;;;;;;;;;5054135;28;19916;-76
2020/12/02 00:02:29;;;;;;;;;;;;;;;;;;5052532;28;19913;-75
2020/12/02 00:04:55;;;;;;;;;;;;;;;;;;5073019;23;20335;-71
2020/12/02 00:07:20;;;;;;;;;;;;;;;;;;5060248;28;19919;-68
2020/12/02 00:09:46;;;;;;;;;;;;;;;;;;5064173;28;19931;-69
2020/12/02 00:12:12;;;;;;;;;;;;;;;;;;5054745;28;20029;-70
2020/12/02 00:14:38;;;;;;;;;;;;;;;;;;5051800;28;19916;-68
2020/12/02 00:17:04;;;;;;;;;;;;;;;;;;5051970;28;19952;-68
2020/12/02 00:19:30;;;;;;;;;;;;;;;;;;5052818;28;19991;-70
2020/12/02 00:21:56;;;;;;;;;;;;;;;;;;5052706;28;20031;-70
2020/12/02 00:24:22;;;;;;;;;;;;;;;;;;5051220;28;20388;-71
2020/12/02 00:26:48;;;;;;;;;;;;;;;;;;5051631;28;20000;-70
2020/12/02 00:29:14;;;;;;;;;;;;;;;;;;5052543;28;20004;-71
2020/12/02 00:31:39;;;;;;;;;;;;;;;;;;5052799;28;20269;-68
2020/12/02 00:34:05;;;;;;;;;;;;;;;;;;5052572;28;20012;-68
2020/12/02 00:36:31;;;;;;;;;;;;;;;;;;5044741;28;19915;-70
2020/12/02 00:38:57;;;;;;;;;;;;;;;;;;5053133;28;20283;-68
2020/12/02 00:41:23;;;;;;;;;;;;;;;;;;5062785;28;19915;-70
2020/12/02 00:43:49;;;;;;;;;;;;;;;;;;5072323;28;19955;-68
2020/12/02 00:46:15;;;;;;;;;;;;;;;;;;5072380;28;19978;-70
2020/12/02 00:48:41;;;;;;;;;;;;;;;;;;5071672;28;20007;-71
2020/12/02 00:51:07;;;;;;;;;;;;;;;;;;5053629;28;19991;-71
2020/12/02 00:53:33;;;;;;;;;;;;;;;;;;5065135;28;20038;-70
2020/12/02 00:55:59;;;;;;;;;;;;;;;;;;5072432;28;19909;-70
2020/12/02 00:58:24;;;;;;;;;;;;;;;;;;5070740;28;20497;-69
2020/12/02 01:00:50;;;;;;;;;;;;;;;;;;5072160;28;19948;-67
2020/12/02 01:03:16;;;;;;;;;;;;;;;;;;5072058;28;19911;-70
2020/12/02 01:05:42;;;;;;;;;;;;;;;;;;5070440;28;19916;-70
2020/12/02 01:08:08;;;;;;;;;;;;;;;;;;5055278;28;19913;-71
2020/12/02 01:10:34;;;;;;;;;;;;;;;;;;5065192;28;19920;-71
2020/12/02 01:13:00;;;;;;;;;;;;;;;;;;5071965;28;19915;-70
2020/12/02 01:15:26;;;;;;;;;;;;;;;;;;5071596;28;19927;-68
2020/12/02 01:17:52;;;;;;;;;;;;;;;;;;5071664;28;19919;-71
2020/12/02 01:20:17;;;;;;;;;;;;;;;;;;5072089;28;20288;-69
2020/12/02 01:22:43;;;;;;;;;;;;;;;;;;5071350;28;19909;-67
2020/12/02 01:25:09;;;;;;;;;;;;;;;;;;5071599;28;19909;-71
2020/12/02 01:27:35;;;;;;;;;;;;;;;;;;5071555;28;19946;-71
2020/12/02 01:30:01;;;;;;;;;;;;;;;;;;5070626;28;20327;-70
2020/12/02 01:32:27;;;;;;;;;;;;;;;;;;5071978;28;19983;-71
2020/12/02 01:34:53;;;;;;;;;;;;;;;;;;5071642;28;19951;-71
2020/12/02 01:37:19;;;;;;;;;;;;;;;;;;5057710;28;19966;-71
2020/12/02 01:39:45;;;;;;;;;;;;;;;;;;5063054;28;20428;-68
2020/12/02 01:42:11;;;;;;;;;;;;;;;;;;5071563;28;19940;-69
2020/12/02 01:44:37;;;;;;;;;;;;;;;;;;5071475;28;19909;-68
2020/12/02 01:47:03;;;;;;;;;;;;;;;;;;5070210;28;19909;-68
2020/12/02 01:49:29;;;;;;;;;;;;;;;;;;5071143;28;19970;-68
2020/12/02 01:51:55;;;;;;;;;;;;;;;;;;5070904;28;20408;-69
2020/12/02 01:54:21;;;;;;;;;;;;;;;;;;5071518;28;19908;-68
2020/12/02 01:56:46;;;;;;;;;;;;;;;;;;5071525;28;19909;-68
2020/12/02 01:59:12;;;;;;;;;;;;;;;;;;5070965;28;19909;-71
2020/12/02 02:01:38;;;;;;;;;;;;;;;;;;5071214;28;19955;-70
2020/12/02 02:04:04;;;;;;;;;;;;;;;;;;5071186;28;19948;-69
2020/12/02 02:06:30;;;;;;;;;;;;;;;;;;5066072;28;20975;-69
2020/12/02 02:08:56;;;;;;;;;;;;;;;;;;5054064;28;19917;-70
2020/12/02 02:11:22;;;;;;;;;;;;;;;;;;5070921;28;19909;-71
2020/12/02 02:13:48;;;;;;;;;;;;;;;;;;5058226;28;20376;-71
2020/12/02 02:16:14;;;;;;;;;;;;;;;;;;5064241;28;20026;-68
2020/12/02 02:18:40;;;;;;;;;;;;;;;;;;5075108;28;19954;-71
2020/12/02 02:21:05;;;;;;;;;;;;;;;;;;5074946;28;20333;-69
2020/12/02 02:23:31;;;;;;;;;;;;;;;;;;5075348;28;20517;-70
2020/12/02 02:25:57;;;;;;;;;;;;;;;;;;5075272;28;20364;-70
2020/12/02 02:28:23;;;;;;;;;;;;;;;;;;5074735;28;19956;-68
2020/12/02 02:30:49;;;;;;;;;;;;;;;;;;5075008;28;19954;-70
2020/12/02 02:33:15;;;;;;;;;;;;;;;;;;5075157;28;20011;-71
2020/12/02 02:35:41;;;;;;;;;;;;;;;;;;5074747;28;20003;-71
2020/12/02 02:38:07;;;;;;;;;;;;;;;;;;5042316;28;19949;-68
2020/12/02 02:40:33;;;;;;;;;;;;;;;;;;5043472;28;20288;-70
2020/12/02 02:42:59;;;;;;;;;;;;;;;;;;5062601;28;19916;-71
2020/12/02 02:45:25;;;;;;;;;;;;;;;;;;5076139;28;19942;-70
2020/12/02 02:47:50;;;;;;;;;;;;;;;;;;5073390;28;20505;-70
2020/12/02 02:50:16;;;;;;;;;;;;;;;;;;5074581;28;19908;-70
2020/12/02 02:52:42;;;;;;;;;;;;;;;;;;5066949;28;19909;-67
2020/12/02 02:55:08;;;;;;;;;;;;;;;;;;5064914;28;19915;-70
2020/12/02 02:57:34;;;;;;;;;;;;;;;;;;5074434;28;19916;-71
2020/12/02 03:00:00;;;;;;;;;;;;;;;;;;5074010;28;19954;-69
2020/12/02 03:02:26;;;;;;;;;;;;;;;;;;5074426;28;20356;-71
2020/12/02 03:04:52;;;;;;;;;;;;;;;;;;5074314;28;19917;-70
2020/12/02 03:07:18;;;;;;;;;;;;;;;;;;5074373;28;19961;-70
2020/12/02 03:09:44;;;;;;;;;;;;;;;;;;5065326;28;19963;-70
2020/12/02 03:12:10;;;;;;;;;;;;;;;;;;5065731;28;19909;-70
2020/12/02 03:14:41;;;;;;;;;;;;;;;;;;5072717;28;19961;-70
2020/12/02 03:17:07;;;;;;;;;;;;;;;;;;5074443;28;19908;-68
2020/12/02 03:19:33;;;;;;;;;;;;;;;;;;5074386;28;19908;-68
2020/12/02 03:21:59;;;;;;;;;;;;;;;;;;5072880;28;19909;-70
2020/12/02 03:24:25;;;;;;;;;;;;;;;;;;5074216;28;20600;-70
2020/12/02 03:26:51;;;;;;;;;;;;;;;;;;5073151;28;19995;-70
2020/12/02 03:29:17;;;;;;;;;;;;;;;;;;5071549;28;19912;-68
2020/12/02 03:31:42;;;;;;;;;;;;;;;;;;5073878;28;20063;-70
2020/12/02 03:34:08;;;;;;;;;;;;;;;;;;5072735;28;19908;-70
2020/12/02 03:36:34;;;;;;;;;;;;;;;;;;5073908;28;19962;-68
2020/12/02 03:39:00;;;;;;;;;;;;;;;;;;5066399;28;19949;-68
2020/12/02 03:41:26;;;;;;;;;;;;;;;;;;5063757;28;19995;-69
2020/12/02 03:43:52;;;;;;;;;;;;;;;;;;5073690;28;20466;-69
2020/12/02 03:46:18;;;;;;;;;;;;;;;;;;5073741;28;19971;-69
2020/12/02 03:48:44;;;;;;;;;;;;;;;;;;5073539;28;19919;-68
2020/12/02 03:51:10;;;;;;;;;;;;;;;;;;5073735;28;19915;-69
2020/12/02 03:53:35;;;;;;;;;;;;;;;;;;5073818;28;19918;-68
2020/12/02 03:56:01;;;;;;;;;;;;;;;;;;5073403;28;19944;-69
2020/12/02 03:58:27;;;;;;;;;;;;;;;;;;5071623;28;19916;-69
2020/12/02 04:00:53;;;;;;;;;;;;;;;;;;5073280;28;20309;-69
2020/12/02 04:03:19;;;;;;;;;;;;;;;;;;5054348;28;19974;-68
2020/12/02 04:05:45;;;;;;;;;;;;;;;;;;5051389;28;19975;-68
2020/12/02 04:08:11;;;;;;;;;;;;;;;;;;5052963;28;20000;-69
2020/12/02 04:10:37;;;;;;;;;;;;;;;;;;5057698;28;20470;-69
2020/12/02 04:13:03;;;;;;;;;;;;;;;;;;5070271;28;19908;-67
2020/12/02 04:15:29;;;;;;;;;;;;;;;;;;5072960;28;20430;-69
2020/12/02 04:17:55;;;;;;;;;;;;;;;;;;5071121;28;19989;-69
2020/12/02 04:20:21;;;;;;;;;;;;;;;;;;5072737;28;19909;-68
2020/12/02 04:22:46;;;;;;;;;;;;;;;;;;5071916;28;19908;-68
2020/12/02 04:25:12;;;;;;;;;;;;;;;;;;5073221;28;19909;-69
2020/12/02 04:27:38;;;;;;;;;;;;;;;;;;5073000;28;19912;-69
2020/12/02 04:30:04;;;;;;;;;;;;;;;;;;5072618;28;20383;-67
2020/12/02 04:32:30;;;;;;;;;;;;;;;;;;5050842;28;19998;-68
2020/12/02 04:35:01;;;;;;;;;;;;;;;;;;5035154;28;20369;-68
2020/12/02 04:37:27;;;;;;;;;;;;;;;;;;5032458;28;19916;-68
2020/12/02 04:39:53;;;;;;;;;;;;;;;;;;5047066;28;19909;-68
2020/12/02 04:42:19;;;;;;;;;;;;;;;;;;5064200;28;19964;-68
2020/12/02 04:44:45;;;;;;;;;;;;;;;;;;5072468;28;20392;-69
2020/12/02 04:47:11;;;;;;;;;;;;;;;;;;5071008;28;19959;-69
2020/12/02 04:49:37;;;;;;;;;;;;;;;;;;5071922;28;19944;-68
2020/12/02 04:52:03;;;;;;;;;;;;;;;;;;5071330;28;20351;-68
2020/12/02 04:54:29;;;;;;;;;;;;;;;;;;5072497;28;20004;-69
2020/12/02 04:56:55;;;;;;;;;;;;;;;;;;5072164;28;19920;-68
2020/12/02 04:59:21;;;;;;;;;;;;;;;;;;5071874;28;19924;-69
2020/12/02 05:01:47;;;;;;;;;;;;;;;;;;5070045;28;20402;-68
2020/12/02 05:04:13;;;;;;;;;;;;;;;;;;5072054;28;20046;-69
2020/12/02 05:06:38;;;;;;;;;;;;;;;;;;5071688;28;19912;-69
2020/12/02 05:09:04;;;;;;;;;;;;;;;;;;5056373;28;19959;-68
2020/12/02 05:11:30;;;;;;;;;;;;;;;;;;5063129;28;20343;-68
2020/12/02 05:13:56;;;;;;;;;;;;;;;;;;5071641;28;20305;-69
2020/12/02 05:16:22;;;;;;;;;;;;;;;;;;5070557;28;20364;-69
2020/12/02 05:18:48;;;;;;;;;;;;;;;;;;5071736;28;19908;-69
2020/12/02 05:21:18;;;;;;;;;;;;;;;;;;5071464;28;19952;-68
2020/12/02 05:23:44;;;;;;;;;;;;;;;;;;5071812;28;20312;-68
2020/12/02 05:26:10;;;;;;;;;;;;;;;;;;5070499;28;19963;-68
2020/12/02 05:28:36;;;;;;;;;;;;;;;;;;5072057;28;20015;-69
2020/12/02 05:31:02;;;;;;;;;;;;;;;;;;5071690;28;20283;-68
2020/12/02 05:33:28;;;;;;;;;;;;;;;;;;5070299;28;19915;-67
2020/12/02 05:35:54;;;;;;;;;;;;;;;;;;5073613;28;19966;-70
2020/12/02 05:38:19;;;;;;;;;;;;;;;;;;5064827;28;19995;-69
2020/12/02 05:40:45;;;;;;;;;;;;;;;;;;5076381;28;19912;-70
2020/12/02 05:43:11;;;;;;;;;;;;;;;;;;5078622;28;19934;-69
2020/12/02 05:45:37;;;;;;;;;;;;;;;;;;5080843;22;19888;-71
2020/12/02 05:48:03;;;;;;;;;;;;;;;;;;5036038;28;20408;-70
2020/12/02 05:50:29;;;;;;;;;;;;;;;;;;5037143;28;19991;-70
2020/12/02 05:52:55;;;;;;;;;;;;;;;;;;5031607;28;20000;-70
2020/12/02 05:55:21;;;;;;;;;;;;;;;;;;5031723;28;19909;-71
2020/12/02 05:57:47;;;;;;;;;;;;;;;;;;5030093;28;19945;-71
2020/12/02 06:00:13;;;;;;;;;;;;;;;;;;5031314;28;20415;-71
2020/12/02 06:02:39;;;;;;;;;;;;;;;;;;5031195;28;19996;-72
2020/12/02 06:05:04;;;;;;;;;;;;;;;;;;5029609;28;19959;-70
2020/12/02 06:07:30;;;;;;;;;;;;;;;;;;5028957;28;19909;-68
2020/12/02 06:09:56;;;;;;;;;;;;;;;;;;5031362;28;19956;-69
2020/12/02 06:12:22;;;;;;;;;;;;;;;;;;5031239;28;19944;-71
2020/12/02 06:14:48;;;;;;;;;;;;;;;;;;5031759;28;19944;-70
2020/12/02 06:17:14;;;;;;;;;;;;;;;;;;5031378;28;20008;-70
2020/12/02 06:19:40;;;;;;;;;;;;;;;;;;5031212;28;19917;-70
2020/12/02 06:22:06;;;;;;;;;;;;;;;;;;5031460;28;20292;-70
2020/12/02 06:24:32;;;;;;;;;;;;;;;;;;5030518;28;19909;-71
2020/12/02 06:26:58;;;;;;;;;;;;;;;;;;5031971;28;19909;-72
2020/12/02 06:29:24;;;;;;;;;;;;;;;;;;5031482;28;19972;-68
2020/12/02 06:31:50;;;;;;;;;;;;;;;;;;5026745;28;19920;-70
2020/12/02 06:34:15;;;;;;;;;;;;;;;;;;5030315;28;19913;-71
2020/12/02 06:36:41;;;;;;;;;;;;;;;;;;5029130;28;19941;-69
2020/12/02 06:39:07;;;;;;;;;;;;;;;;;;5034762;28;20408;-70
2020/12/02 06:41:33;;;;;;;;;;;;;;;;;;5030359;28;19978;-69
2020/12/02 06:44:00;;;;;;;;;;;;;;;;;;5030253;28;20381;-69
2020/12/02 06:46:26;;;;;;;;;;;;;;;;;;5031165;28;19960;-68
2020/12/02 06:48:52;;;;;;;;;;;;;;;;;;5029961;28;20342;-69
2020/12/02 06:51:18;;;;;;;;;;;;;;;;;;5031918;28;19910;-69
2020/12/02 06:53:44;;;;;;;;;;;;;;;;;;5031289;28;19936;-70
2020/12/02 06:56:09;;;;;;;;;;;;;;;;;;5028876;28;19909;-70
2020/12/02 06:58:35;;;;;;;;;;;;;;;;;;5036385;28;19949;-69
2020/12/02 07:01:01;;;;;;;;;;;;;;;;;;5033850;28;19917;-69
2020/12/02 07:03:27;;;;;;;;;;;;;;;;;;5033144;28;19952;-69
2020/12/02 07:05:53;;;;;;;;;;;;;;;;;;5034948;28;19936;-68
2020/12/02 07:08:19;;;;;;;;;;;;;;;;;;5035269;28;19936;-69
2020/12/02 07:10:45;;;;;;;;;;;;;;;;;;5036206;28;19956;-67
2020/12/02 07:13:11;;;;;;;;;;;;;;;;;;5033999;28;20331;-70
2020/12/02 07:15:37;;;;;;;;;;;;;;;;;;5032196;28;19913;-69
2020/12/02 07:18:03;;;;;;;;;;;;;;;;;;5031374;28;19917;-70
2020/12/02 07:20:29;;;;;;;;;;;;;;;;;;5031790;28;19913;-69
2020/12/02 07:22:55;;;;;;;;;;;;;;;;;;5032205;28;19956;-69
2020/12/02 07:25:21;;;;;;;;;;;;;;;;;;5032131;28;20032;-69
2020/12/02 07:27:47;;;;;;;;;;;;;;;;;;5033914;28;19913;-67
2020/12/02 07:30:13;;;;;;;;;;;;;;;;;;5034131;28;19952;-69
2020/12/02 07:32:38;;;;;;;;;;;;;;;;;;5033899;28;19909;-69
2020/12/02 07:35:04;;;;;;;;;;;;;;;;;;5033650;28;20046;-69
2020/12/02 07:37:30;;;;;;;;;;;;;;;;;;5032689;28;19941;-69
2020/12/02 07:39:57;;;;;;;;;;;;;;;;;;5033103;28;19984;-69
2020/12/02 07:42:23;;;;;;;;;;;;;;;;;;5033215;28;19909;-69
2020/12/02 07:44:48;;;;;;;;;;;;;;;;;;5033604;28;19955;-69
2020/12/02 07:47:14;;;;;;;;;;;;;;;;;;5033883;28;20431;-69
2020/12/02 07:49:40;;;;;;;;;;;;;;;;;;5033024;28;20047;-70
2020/12/02 07:52:06;;;;;;;;;;;;;;;;;;5032255;28;19963;-68
2020/12/02 07:54:32;;;;;;;;;;;;;;;;;;5033000;28;20004;-69
2020/12/02 07:57:00;;;;;;;;;;;;;;;;;;5033245;28;20372;-69
2020/12/02 07:59:26;;;;;;;;;;;;;;;;;;5031719;28;19916;-70
2020/12/02 08:01:52;;;;;;;;;;;;;;;;;;5034184;28;19909;-70
2020/12/02 08:04:17;;;;;;;;;;;;;;;;;;5033334;28;19909;-69
2020/12/02 08:06:43;;;;;;;;;;;;;;;;;;5033383;28;19935;-70
2020/12/02 08:09:09;;;;;;;;;;;;;;;;;;5032804;28;19917;-71
2020/12/02 08:11:36;;;;;;;;;;;;;;;;;;5033317;28;20369;-71
2020/12/02 08:14:02;;;;;;;;;;;;;;;;;;5032871;28;19920;-70
2020/12/02 08:16:28;;;;;;;;;;;;;;;;;;5033667;28;20292;-69
2020/12/02 08:18:54;;;;;;;;;;;;;;;;;;5033746;28;19916;-69
2020/12/02 08:21:20;;;;;;;;;;;;;;;;;;5033818;28;19932;-69
2020/12/02 08:23:46;;;;;;;;;;;;;;;;;;5032418;28;19932;-70
2020/12/02 08:26:12;;;;;;;;;;;;;;;;;;5033665;28;20000;-69
2020/12/02 08:28:38;;;;;;;;;;;;;;;;;;5033038;28;20353;-69
2020/12/02 08:31:04;;;;;;;;;;;;;;;;;;5033694;28;19996;-70
2020/12/02 08:33:30;;;;;;;;;;;;;;;;;;5033486;28;20281;-69
2020/12/02 08:35:56;;;;;;;;;;;;;;;;;;5033149;28;19963;-70
2020/12/02 08:38:22;;;;;;;;;;;;;;;;;;5030922;28;20328;-71
2020/12/02 08:40:47;;;;;;;;;;;;;;;;;;5032045;28;19910;-69
2020/12/02 08:43:13;;;;;;;;;;;;;;;;;;5032242;28;19932;-69
2020/12/02 08:45:39;;;;;;;;;;;;;;;;;;5033215;28;19909;-70
2020/12/02 08:48:05;;;;;;;;;;;;;;;;;;5032482;28;19913;-69
2020/12/02 08:50:31;;;;;;;;;;;;;;;;;;5032464;28;20316;-69
2020/12/02 08:52:57;;;;;;;;;;;;;;;;;;5032447;28;19909;-69
2020/12/02 08:55:23;;;;;;;;;;;;;;;;;;5032682;28;19909;-69
2020/12/02 08:57:49;;;;;;;;;;;;;;;;;;5032098;28;19967;-69
2020/12/02 09:00:15;;;;;;;;;;;;;;;;;;5031647;28;19971;-69
2020/12/02 09:02:41;;;;;;;;;;;;;;;;;;5031901;28;19909;-69
2020/12/02 09:05:06;;;;;;;;;;;;;;;;;;5032094;28;19913;-69
2020/12/02 09:07:32;;;;;;;;;;;;;;;;;;5031368;28;19957;-69
2020/12/02 09:09:58;;;;;;;;;;;;;;;;;;5031635;28;19952;-69
2020/12/02 09:12:24;;;;;;;;;;;;;;;;;;5032223;28;19941;-69
2020/12/02 09:14:50;;;;;;;;;;;;;;;;;;5032183;28;19976;-69
2020/12/02 09:17:16;;;;;;;;;;;;;;;;;;5032223;28;19933;-69
2020/12/02 09:19:42;;;;;;;;;;;;;;;;;;5031935;28;20026;-68
2020/12/02 09:22:08;;;;;;;;;;;;;;;;;;5031615;28;19948;-69
2020/12/02 09:24:34;;;;;;;;;;;;;;;;;;5031760;28;19949;-69
2020/12/02 09:27:00;;;;;;;;;;;;;;;;;;5031396;28;19953;-72
2020/12/02 09:29:26;;;;;;;;;;;;;;;;;;5012998;28;19913;-71
2020/12/02 09:31:51;;;;;;;;;;;;;;;;;;5033775;28;20546;-71
2020/12/02 09:34:18;;;;;;;;;;;;;;;;;;5032051;28;19916;-70
2020/12/02 09:36:44;;;;;;;;;;;;;;;;;;5031735;28;20024;-71
2020/12/02 09:39:10;;;;;;;;;;;;;;;;;;5032321;28;19924;-70
2020/12/02 09:41:36;;;;;;;;;;;;;;;;;;5030819;28;20015;-70
2020/12/02 09:44:02;;;;;;;;;;;;;;;;;;5031659;28;19909;-70
2020/12/02 09:46:28;;;;;;;;;;;;;;;;;;5031585;28;20399;-70
2020/12/02 09:48:54;;;;;;;;;;;;;;;;;;5031271;28;19960;-71
2020/12/02 09:51:20;;;;;;;;;;;;;;;;;;5031267;28;19909;-70
2020/12/02 09:53:46;;;;;;;;;;;;;;;;;;5031308;28;19916;-70
2020/12/02 09:56:12;;;;;;;;;;;;;;;;;;5031425;28;20380;-70
2020/12/02 09:58:37;;;;;;;;;;;;;;;;;;5031313;28;20059;-71
2020/12/02 10:01:03;;;;;;;;;;;;;;;;;;5031327;28;20293;-70
2020/12/02 10:03:29;;;;;;;;;;;;;;;;;;5029955;28;19915;-69
2020/12/02 10:05:55;;;;;;;;;;;;;;;;;;5031307;28;19950;-70
2020/12/02 10:08:21;;;;;;;;;;;;;;;;;;5030539;28;20031;-70
2020/12/02 10:10:47;;;;;;;;;;;;;;;;;;5031081;28;19909;-70
2020/12/02 10:13:13;;;;;;;;;;;;;;;;;;5029974;28;20273;-70
2020/12/02 10:15:39;;;;;;;;;;;;;;;;;;5029766;28;19967;-70
2020/12/02 10:18:05;;;;;;;;;;;;;;;;;;5029465;28;19932;-70
2020/12/02 10:20:31;;;;;;;;;;;;;;;;;;5030609;28;19944;-71
2020/12/02 10:22:57;;;;;;;;;;;;;;;;;;5027493;28;19995;-71
2020/12/02 10:25:24;;;;;;;;;;;;;;;;;;5031283;28;20365;-70
2020/12/02 10:27:50;;;;;;;;;;;;;;;;;;5031564;28;20000;-70
2020/12/02 10:30:15;;;;;;;;;;;;;;;;;;5031677;28;20009;-70
2020/12/02 10:32:41;;;;;;;;;;;;;;;;;;5029962;28;20269;-71
2020/12/02 10:35:07;;;;;;;;;;;;;;;;;;5031068;28;19917;-71
2020/12/02 10:37:33;;;;;;;;;;;;;;;;;;5032485;28;19971;-70
2020/12/02 10:39:59;;;;;;;;;;;;;;;;;;5034847;28;19948;-70
2020/12/02 10:42:25;;;;;;;;;;;;;;;;;;5034039;28;19967;-70
2020/12/02 10:44:51;;;;;;;;;;;;;;;;;;5034876;28;20040;-70
2020/12/02 10:47:17;;;;;;;;;;;;;;;;;;5034722;28;20374;-70
2020/12/02 10:49:43;;;;;;;;;;;;;;;;;;5034863;28;19967;-70
2020/12/02 10:52:09;;;;;;;;;;;;;;;;;;5035237;28;19920;-70
2020/12/02 10:54:35;;;;;;;;;;;;;;;;;;5031566;28;19965;-75
2020/12/02 10:57:01;;;;;;;;;;;;;;;;;;5032356;28;19913;-70
2020/12/02 10:59:27;;;;;;;;;;;;;;;;;;5031112;28;19948;-70
2020/12/02 11:01:53;;;;;;;;;;;;;;;;;;5033093;28;20000;-70
2020/12/02 11:04:19;;;;;;;;;;;;;;;;;;5033155;28;20020;-70
2020/12/02 11:06:45;;;;;;;;;;;;;;;;;;5032061;28;19952;-70
2020/12/02 11:09:10;;;;;;;;;;;;;;;;;;5031728;28;19956;-70
2020/12/02 11:11:36;;;;;;;;;;;;;;;;;;5032215;28;19952;-70
2020/12/02 11:14:02;;;;;;;;;;;;;;;;;;5033281;28;19980;-70
2020/12/02 11:16:28;;;;;;;;;;;;;;;;;;5030394;28;19923;-70
2020/12/02 11:18:54;;;;;;;;;;;;;;;;;;5032635;28;19913;-69
2020/12/02 11:21:26;;;;;;;;;;;;;;;;;;5034143;28;19909;-69
2020/12/02 11:23:52;;;;;;;;;;;;;;;;;;5034276;28;19910;-68
2020/12/02 11:26:18;;;;;;;;;;;;;;;;;;5033635;28;20419;-68
2020/12/02 11:28:44;;;;;;;;;;;;;;;;;;5033693;28;19957;-69
2020/12/02 11:31:10;;;;;;;;;;;;;;;;;;5033835;28;19909;-69
2020/12/02 11:33:36;;;;;;;;;;;;;;;;;;5032889;28;19909;-70
2020/12/02 11:36:01;;;;;;;;;;;;;;;;;;5033918;28;20317;-69
2020/12/02 11:38:27;;;;;;;;;;;;;;;;;;5033565;28;19909;-70
2020/12/02 11:40:53;;;;;;;;;;;;;;;;;;5040273;28;19913;-71
2020/12/02 11:43:19;;;;;;;;;;;;;;;;;;5038862;28;19917;-71
2020/12/02 11:45:45;;;;;;;;;;;;;;;;;;5030997;28;19966;-70
2020/12/02 11:48:11;;;;;;;;;;;;;;;;;;5031007;28;20250;-69
2020/12/02 11:50:37;;;;;;;;;;;;;;;;;;5032198;28;20448;-70
2020/12/02 11:53:03;;;;;;;;;;;;;;;;;;5033637;28;20430;-69
2020/12/02 11:55:29;;;;;;;;;;;;;;;;;;5031794;28;19916;-70
2020/12/02 11:57:55;;;;;;;;;;;;;;;;;;5032010;28;19982;-69
2020/12/02 12:00:21;;;;;;;;;;;;;;;;;;5033287;28;19916;-70
2020/12/02 12:02:46;;;;;;;;;;;;;;;;;;5032352;28;20004;-70
2020/12/02 12:05:12;;;;;;;;;;;;;;;;;;5033451;28;19909;-69
2020/12/02 12:07:39;;;;;;;;;;;;;;;;;;5030850;28;19944;-70
2020/12/02 12:10:05;;;;;;;;;;;;;;;;;;5033791;28;19917;-70
2020/12/02 12:12:31;;;;;;;;;;;;;;;;;;5034108;28;19916;-70
2020/12/02 12:14:57;;;;;;;;;;;;;;;;;;5032979;28;19914;-69
2020/12/02 12:17:23;;;;;;;;;;;;;;;;;;5033004;28;19920;-69
2020/12/02 12:19:53;;;;;;;;;;;;;;;;;;5031412;28;20000;-71
2020/12/02 12:22:18;;;;;;;;;;;;;;;;;;5032206;28;20274;-70
2020/12/02 12:24:44;;;;;;;;;;;;;;;;;;5032895;28;19999;-70
2020/12/02 12:27:10;;;;;;;;;;;;;;;;;;5032913;28;19963;-69
2020/12/02 12:29:36;;;;;;;;;;;;;;;;;;5034049;28;20016;-71
2020/12/02 12:32:02;;;;;;;;;;;;;;;;;;5032975;28;20363;-71
2020/12/02 12:34:28;;;;;;;;;;;;;;;;;;5031449;28;19910;-70
2020/12/02 12:36:54;;;;;;;;;;;;;;;;;;5031662;28;19959;-70
2020/12/02 12:39:20;;;;;;;;;;;;;;;;;;5031872;28;19909;-70
2020/12/02 12:41:46;;;;;;;;;;;;;;;;;;5030970;28;20385;-70
2020/12/02 12:44:12;;;;;;;;;;;;;;;;;;5032454;28;19953;-70
2020/12/02 12:46:38;;;;;;;;;;;;;;;;;;5031008;28;19925;-69
2020/12/02 12:49:04;;;;;;;;;;;;;;;;;;5032353;28;19913;-70
2020/12/02 12:51:30;;;;;;;;;;;;;;;;;;5031097;28;19913;-70
2020/12/02 12:53:56;;;;;;;;;;;;;;;;;;5032568;28;19956;-70
2020/12/02 12:56:22;;;;;;;;;;;;;;;;;;5031648;28;19956;-71
2020/12/02 12:58:47;;;;;;;;;;;;;;;;;;5032378;28;19909;-70
2020/12/02 13:01:13;;;;;;;;;;;;;;;;;;5032107;28;19941;-70
2020/12/02 13:03:39;;;;;;;;;;;;;;;;;;5029163;28;19920;-70
2020/12/02 13:06:05;;;;;;;;;;;;;;;;;;5032121;28;20321;-70
2020/12/02 13:08:31;;;;;;;;;;;;;;;;;;5029605;28;20007;-71
2020/12/02 13:10:57;;;;;;;;;;;;;;;;;;5030258;28;19940;-71
2020/12/02 13:13:23;;;;;;;;;;;;;;;;;;5030489;28;19957;-70
2020/12/02 13:15:49;;;;;;;;;;;;;;;;;;5031666;28;19962;-70
2020/12/02 13:18:15;;;;;;;;;;;;;;;;;;5031994;28;20384;-71
2020/12/02 13:20:41;;;;;;;;;;;;;;;;;;5032513;28;19909;-70
2020/12/02 13:23:07;;;;;;;;;;;;;;;;;;5031460;28;19917;-71
2020/12/02 13:25:33;;;;;;;;;;;;;;;;;;5032111;28;19936;-71
2020/12/02 13:27:59;;;;;;;;;;;;;;;;;;5032458;28;19963;-70
2020/12/02 13:30:25;;;;;;;;;;;;;;;;;;5032167;28;19960;-71
2020/12/02 13:32:50;;;;;;;;;;;;;;;;;;5032018;28;20370;-70
2020/12/02 13:35:16;;;;;;;;;;;;;;;;;;5030585;28;19956;-70
2020/12/02 13:37:42;;;;;;;;;;;;;;;;;;5024694;28;20403;-70
2020/12/02 13:40:08;;;;;;;;;;;;;;;;;;5030092;28;19949;-71
2020/12/02 13:42:34;;;;;;;;;;;;;;;;;;5031003;28;19944;-70
2020/12/02 13:45:00;;;;;;;;;;;;;;;;;;5031271;28;19952;-70
2020/12/02 13:47:26;;;;;;;;;;;;;;;;;;5030713;28;19951;-70
2020/12/02 13:49:52;;;;;;;;;;;;;;;;;;5031403;28;19952;-70
2020/12/02 13:52:18;;;;;;;;;;;;;;;;;;5029721;28;20029;-70
2020/12/02 13:54:44;;;;;;;;;;;;;;;;;;5031295;28;19952;-71
2020/12/02 13:57:10;;;;;;;;;;;;;;;;;;5031183;28;19909;-71
2020/12/02 13:59:36;;;;;;;;;;;;;;;;;;5031490;28;19945;-70
2020/12/02 14:02:01;;;;;;;;;;;;;;;;;;5031275;28;19914;-70
2020/12/02 14:04:27;;;;;;;;;;;;;;;;;;5032232;28;19955;-71
2020/12/02 14:06:53;;;;;;;;;;;;;;;;;;5031215;28;19917;-70
2020/12/02 14:09:19;;;;;;;;;;;;;;;;;;5031346;28;19987;-71
2020/12/02 14:11:45;;;;;;;;;;;;;;;;;;5030784;28;20394;-70
2020/12/02 14:14:11;;;;;;;;;;;;;;;;;;5031441;28;19968;-69
2020/12/02 14:16:37;;;;;;;;;;;;;;;;;;5031150;28;19963;-68
2020/12/02 14:19:03;;;;;;;;;;;;;;;;;;5031079;28;20193;-69
2020/12/02 14:21:29;;;;;;;;;;;;;;;;;;5031133;28;20003;-70
2020/12/02 14:23:55;;;;;;;;;;;;;;;;;;5030403;28;20400;-70
2020/12/02 14:26:21;;;;;;;;;;;;;;;;;;5030728;28;19971;-70
2020/12/02 14:28:46;;;;;;;;;;;;;;;;;;5030903;28;19985;-70
2020/12/02 14:31:12;;;;;;;;;;;;;;;;;;5030997;28;19917;-70
2020/12/02 14:33:38;;;;;;;;;;;;;;;;;;5031005;28;19949;-69
2020/12/02 14:36:04;;;;;;;;;;;;;;;;;;5031059;28;20344;-70
2020/12/02 14:38:30;;;;;;;;;;;;;;;;;;5030503;28;20357;-71
2020/12/02 14:40:56;;;;;;;;;;;;;;;;;;5031092;28;19913;-70
2020/12/02 14:43:22;;;;;;;;;;;;;;;;;;5030940;28;19913;-71
2020/12/02 14:45:48;;;;;;;;;;;;;;;;;;5030817;28;19917;-70
2020/12/02 14:48:14;;;;;;;;;;;;;;;;;;5030716;28;20377;-71
2020/12/02 14:50:40;;;;;;;;;;;;;;;;;;5030083;28;20008;-68
2020/12/02 14:53:06;;;;;;;;;;;;;;;;;;5030398;28;19987;-69
2020/12/02 14:55:32;;;;;;;;;;;;;;;;;;5030861;28;19917;-70
2020/12/02 14:57:58;;;;;;;;;;;;;;;;;;5030454;28;19913;-71
2020/12/02 15:00:24;;;;;;;;;;;;;;;;;;5030594;28;19940;-71
2020/12/02 15:02:49;;;;;;;;;;;;;;;;;;5029229;28;19960;-72
2020/12/02 15:05:15;;;;;;;;;;;;;;;;;;5029416;28;19995;-71
2020/12/02 15:07:41;;;;;;;;;;;;;;;;;;5028907;28;20391;-71
2020/12/02 15:10:07;;;;;;;;;;;;;;;;;;5030716;28;19956;-70
2020/12/02 15:12:33;;;;;;;;;;;;;;;;;;5031119;28;20360;-71
2020/12/02 15:14:59;;;;;;;;;;;;;;;;;;5029768;28;19961;-70
2020/12/02 15:17:25;;;;;;;;;;;;;;;;;;5029367;28;19956;-69
2020/12/02 15:19:51;;;;;;;;;;;;;;;;;;5030852;28;19956;-70
2020/12/02 15:22:22;;;;;;;;;;;;;;;;;;5030367;28;20462;-70
2020/12/02 15:24:48;;;;;;;;;;;;;;;;;;5034380;28;19917;-70
2020/12/02 15:27:13;;;;;;;;;;;;;;;;;;5032814;28;19909;-69
2020/12/02 15:29:39;;;;;;;;;;;;;;;;;;5049089;28;19956;-70
2020/12/02 15:32:05;;;;;;;;;;;;;;;;;;5034014;28;20011;-70
2020/12/02 15:34:31;;;;;;;;;;;;;;;;;;5034249;28;20415;-70
2020/12/02 15:36:57;;;;;;;;;;;;;;;;;;5033570;28;19910;-70
2020/12/02 15:39:25;;;;;;;;;;;;;;;;;;5033553;28;19945;-70
2020/12/02 15:41:51;;;;;;;;;;;;;;;;;;5033934;28;19916;-70
2020/12/02 15:44:17;;;;;;;;;;;;;;;;;;5033499;28;20004;-70
2020/12/02 15:46:43;;;;;;;;;;;;;;;;;;5032585;28;20640;-70
2020/12/02 15:49:09;;;;;;;;;;;;;;;;;;5032991;28;19968;-70
2020/12/02 15:51:35;;;;;;;;;;;;;;;;;;5033658;28;19944;-70
2020/12/02 15:54:01;;;;;;;;;;;;;;;;;;5033478;28;19909;-70
2020/12/02 15:56:27;;;;;;;;;;;;;;;;;;5033700;28;19909;-69
2020/12/02 15:58:53;;;;;;;;;;;;;;;;;;5033360;28;19968;-70
2020/12/02 16:01:19;;;;;;;;;;;;;;;;;;5031972;28;19982;-69
2020/12/02 16:03:45;;;;;;;;;;;;;;;;;;5033752;28;19913;-70
2020/12/02 16:06:10;;;;;;;;;;;;;;;;;;5032352;28;19975;-72
2020/12/02 16:08:36;;;;;;;;;;;;;;;;;;5033254;28;20417;-71
2020/12/02 16:11:02;;;;;;;;;;;;;;;;;;5032426;28;19933;-69
2020/12/02 16:13:28;;;;;;;;;;;;;;;;;;5033738;28;19932;-70
2020/12/02 16:15:54;;;;;;;;;;;;;;;;;;5033432;28;19959;-70
2020/12/02 16:18:20;;;;;;;;;;;;;;;;;;5033123;28;19948;-71
2020/12/02 16:20:46;;;;;;;;;;;;;;;;;;5032508;28;19940;-71
2020/12/02 16:23:12;;;;;;;;;;;;;;;;;;5031098;28;19992;-71
2020/12/02 16:25:38;;;;;;;;;;;;;;;;;;5031392;28;19980;-71
2020/12/02 16:28:04;;;;;;;;;;;;;;;;;;5032863;28;20389;-71
2020/12/02 16:30:30;;;;;;;;;;;;;;;;;;5033763;28;19948;-72
2020/12/02 16:32:55;;;;;;;;;;;;;;;;;;5034176;28;19956;-71
2020/12/02 16:35:22;;;;;;;;;;;;;;;;;;5032979;28;19914;-69